sensor_id;sensor_type;location;lat;lon;timestamp;temperature;humidity
6518;DHT22;3292;48.944;9.240;2024-01-15T00:00:58;-2.50;99.90
6518;DHT22;3292;48.944;9.240;2024-01-15T00:03:26;-2.50;99.90
6518;DHT22;3292;48.944;9.240;2024-01-15T00:05:53;-2.40;99.90
6518;DHT22;3292;48.944;9.240;2024-01-15T00:08:20;-2.40;99.90
6518;DHT22;3292;48.944;9.240;2024-01-15T00:10:47;-2.40;99.90
6518;DHT22;3292;48.944;9.240;2024-01-15T00:13:14;-2.40;99.90
6518;DHT22;3292;48.944;9.240;2024-01-15T00:15:40;-2.40;99.90
6518;DHT22;3292;48.944;9.240;2024-01-15T00:18:07;-2.40;99.90
6518;DHT22;3292;48.944;9.240;2024-01-15T00:20:35;-2.40;99.90
6518;DHT22;3292;48.944;9.240;2024-01-15T00:23:02;-2.40;99.90
6518;DHT22;3292;48.944;9.240;2024-01-15T00:25:29;-2.50;99.90
6518;DHT22;3292;48.944;9.240;2024-01-15T00:27:56;-2.40;99.90
6518;DHT22;3292;48.944;9.240;2024-01-15T00:30:22;-2.40;99.90
6518;DHT22;3292;48.944;9.240;2024-01-15T00:32:49;-2.40;99.90
6518;DHT22;3292;48.944;9.240;2024-01-15T00:35:16;-2.40;99.90
6518;DHT22;3292;48.944;9.240;2024-01-15T00:37:44;-2.50;99.90
6518;DHT22;3292;48.944;9.240;2024-01-15T00:40:11;-2.50;99.90
6518;DHT22;3292;48.944;9.240;2024-01-15T00:42:38;-2.50;99.90
6518;DHT22;3292;48.944;9.240;2024-01-15T00:45:06;-2.50;99.90
6518;DHT22;3292;48.944;9.240;2024-01-15T00:47:34;-2.50;99.90
6518;DHT22;3292;48.944;9.240;2024-01-15T00:50:01;-2.50;99.90
6518;DHT22;3292;48.944;9.240;2024-01-15T00:52:28;-2.50;99.90
6518;DHT22;3292;48.944;9.240;2024-01-15T00:54:56;-2.40;99.90
6518;DHT22;3292;48.944;9.240;2024-01-15T00:57:23;-2.40;99.90
6518;DHT22;3292;48.944;9.240;2024-01-15T00:59:50;-2.40;99.90
6518;DHT22;3292;48.944;9.240;2024-01-15T01:02:17;-2.40;99.90
6518;DHT22;3292;48.944;9.240;2024-01-15T01:04:43;-2.30;99.90
6518;DHT22;3292;48.944;9.240;2024-01-15T01:07:10;-2.30;99.90
6518;DHT22;3292;48.944;9.240;2024-01-15T01:09:37;-2.30;99.90
6518;DHT22;3292;48.944;9.240;2024-01-15T01:12:06;-2.20;99.90
6518;DHT22;3292;48.944;9.240;2024-01-15T01:14:33;-2.20;99.90
6518;DHT22;3292;48.944;9.240;2024-01-15T01:16:59;-2.20;99.90
6518;DHT22;3292;48.944;9.240;2024-01-15T01:19:26;-2.10;99.90
6518;DHT22;3292;48.944;9.240;2024-01-15T01:21:53;-2.10;99.90
6518;DHT22;3292;48.944;9.240;2024-01-15T01:24:20;-2.10;99.90
6518;DHT22;3292;48.944;9.240;2024-01-15T01:26:46;-2.00;99.90
6518;DHT22;3292;48.944;9.240;2024-01-15T01:29:15;-2.00;99.90
6518;DHT22;3292;48.944;9.240;2024-01-15T01:31:44;-1.90;99.90
6518;DHT22;3292;48.944;9.240;2024-01-15T01:34:14;-1.90;99.90
6518;DHT22;3292;48.944;9.240;2024-01-15T01:36:41;-1.80;99.90
6518;DHT22;3292;48.944;9.240;2024-01-15T01:39:09;-1.80;99.90
6518;DHT22;3292;48.944;9.240;2024-01-15T01:41:36;-1.70;99.90
6518;DHT22;3292;48.944;9.240;2024-01-15T01:44:03;-1.70;99.90
6518;DHT22;3292;48.944;9.240;2024-01-15T01:46:31;-1.70;99.90
6518;DHT22;3292;48.944;9.240;2024-01-15T01:48:59;-1.70;99.90
6518;DHT22;3292;48.944;9.240;2024-01-15T01:51:31;-1.70;99.90
6518;DHT22;3292;48.944;9.240;2024-01-15T01:53:58;-1.60;99.90
6518;DHT22;3292;48.944;9.240;2024-01-15T01:56:25;-1.60;99.90
6518;DHT22;3292;48.944;9.240;2024-01-15T01:58:51;-1.60;99.90
6518;DHT22;3292;48.944;9.240;2024-01-15T02:01:18;-1.60;99.90
6518;DHT22;3292;48.944;9.240;2024-01-15T02:03:49;-1.50;99.90
6518;DHT22;3292;48.944;9.240;2024-01-15T02:06:16;-1.50;99.90
6518;DHT22;3292;48.944;9.240;2024-01-15T02:08:43;-1.40;99.90
6518;DHT22;3292;48.944;9.240;2024-01-15T02:11:10;-1.40;99.90
6518;DHT22;3292;48.944;9.240;2024-01-15T02:13:38;-1.40;99.90
6518;DHT22;3292;48.944;9.240;2024-01-15T02:16:05;-1.40;99.90
6518;DHT22;3292;48.944;9.240;2024-01-15T02:18:40;-1.40;99.90
6518;DHT22;3292;48.944;9.240;2024-01-15T02:21:08;-1.40;99.90
6518;DHT22;3292;48.944;9.240;2024-01-15T02:23:37;-1.40;99.90
6518;DHT22;3292;48.944;9.240;2024-01-15T02:26:04;-1.30;99.90
6518;DHT22;3292;48.944;9.240;2024-01-15T02:28:32;-1.30;99.90
6518;DHT22;3292;48.944;9.240;2024-01-15T02:30:59;-1.30;99.90
6518;DHT22;3292;48.944;9.240;2024-01-15T02:33:26;-1.30;99.90
6518;DHT22;3292;48.944;9.240;2024-01-15T02:35:53;-1.30;99.90
6518;DHT22;3292;48.944;9.240;2024-01-15T02:38:20;-1.30;99.90
6518;DHT22;3292;48.944;9.240;2024-01-15T02:40:49;-1.30;99.90
6518;DHT22;3292;48.944;9.240;2024-01-15T02:43:16;-1.20;99.90
6518;DHT22;3292;48.944;9.240;2024-01-15T02:45:44;-1.30;99.90
6518;DHT22;3292;48.944;9.240;2024-01-15T02:48:11;-1.20;99.90
6518;DHT22;3292;48.944;9.240;2024-01-15T02:50:38;-1.20;99.90
6518;DHT22;3292;48.944;9.240;2024-01-15T02:53:07;-1.20;99.90
6518;DHT22;3292;48.944;9.240;2024-01-15T02:55:34;-1.20;99.90
6518;DHT22;3292;48.944;9.240;2024-01-15T02:58:02;-1.20;99.90
6518;DHT22;3292;48.944;9.240;2024-01-15T03:00:29;-1.10;99.90
6518;DHT22;3292;48.944;9.240;2024-01-15T03:02:56;-1.20;99.90
6518;DHT22;3292;48.944;9.240;2024-01-15T03:05:23;-1.20;99.90
6518;DHT22;3292;48.944;9.240;2024-01-15T03:07:50;-1.10;99.90
6518;DHT22;3292;48.944;9.240;2024-01-15T03:10:17;-1.10;99.90
6518;DHT22;3292;48.944;9.240;2024-01-15T03:12:43;-1.10;99.90
6518;DHT22;3292;48.944;9.240;2024-01-15T03:15:11;-1.10;99.90
6518;DHT22;3292;48.944;9.240;2024-01-15T03:17:38;-1.10;99.90
6518;DHT22;3292;48.944;9.240;2024-01-15T03:20:06;-1.10;99.90
6518;DHT22;3292;48.944;9.240;2024-01-15T03:22:33;-1.10;99.90
6518;DHT22;3292;48.944;9.240;2024-01-15T03:24:59;-1.10;99.90
6518;DHT22;3292;48.944;9.240;2024-01-15T03:27:26;-1.10;99.90
6518;DHT22;3292;48.944;9.240;2024-01-15T03:29:53;-1.10;99.90
6518;DHT22;3292;48.944;9.240;2024-01-15T03:32:21;-1.10;99.90
6518;DHT22;3292;48.944;9.240;2024-01-15T03:34:48;-1.10;99.90
6518;DHT22;3292;48.944;9.240;2024-01-15T03:37:15;-1.20;99.90
6518;DHT22;3292;48.944;9.240;2024-01-15T03:39:41;-1.10;99.90
6518;DHT22;3292;48.944;9.240;2024-01-15T03:42:08;-1.10;99.90
6518;DHT22;3292;48.944;9.240;2024-01-15T03:44:35;-1.10;99.90
6518;DHT22;3292;48.944;9.240;2024-01-15T03:47:02;-1.10;99.90
6518;DHT22;3292;48.944;9.240;2024-01-15T03:49:30;-1.10;99.90
6518;DHT22;3292;48.944;9.240;2024-01-15T03:51:56;-1.00;99.90
6518;DHT22;3292;48.944;9.240;2024-01-15T03:54:23;-1.00;99.90
6518;DHT22;3292;48.944;9.240;2024-01-15T03:56:50;-1.10;99.90
6518;DHT22;3292;48.944;9.240;2024-01-15T03:59:17;-1.00;99.90
6518;DHT22;3292;48.944;9.240;2024-01-15T04:01:48;-1.00;99.90
6518;DHT22;3292;48.944;9.240;2024-01-15T04:04:16;-1.00;99.90
6518;DHT22;3292;48.944;9.240;2024-01-15T04:06:44;-1.00;99.90
6518;DHT22;3292;48.944;9.240;2024-01-15T04:09:12;-1.00;99.90
6518;DHT22;3292;48.944;9.240;2024-01-15T04:11:38;-1.00;99.90
6518;DHT22;3292;48.944;9.240;2024-01-15T04:14:05;-0.90;99.90
6518;DHT22;3292;48.944;9.240;2024-01-15T04:16:32;-0.90;99.90
6518;DHT22;3292;48.944;9.240;2024-01-15T04:18:59;-0.90;99.90
6518;DHT22;3292;48.944;9.240;2024-01-15T04:21:26;-0.90;99.90
6518;DHT22;3292;48.944;9.240;2024-01-15T04:23:54;-0.90;99.90
6518;DHT22;3292;48.944;9.240;2024-01-15T04:26:20;-0.90;99.90
6518;DHT22;3292;48.944;9.240;2024-01-15T04:28:47;-0.90;99.90
6518;DHT22;3292;48.944;9.240;2024-01-15T04:31:22;-0.90;99.90
6518;DHT22;3292;48.944;9.240;2024-01-15T04:33:49;-0.90;99.90
6518;DHT22;3292;48.944;9.240;2024-01-15T04:36:16;-0.90;99.90
6518;DHT22;3292;48.944;9.240;2024-01-15T04:38:42;-0.80;99.90
6518;DHT22;3292;48.944;9.240;2024-01-15T04:41:13;-0.90;99.90
6518;DHT22;3292;48.944;9.240;2024-01-15T04:43:40;-0.80;99.90
6518;DHT22;3292;48.944;9.240;2024-01-15T04:46:07;-0.80;99.90
6518;DHT22;3292;48.944;9.240;2024-01-15T04:48:34;-0.80;99.90
6518;DHT22;3292;48.944;9.240;2024-01-15T04:51:00;-0.80;99.90
6518;DHT22;3292;48.944;9.240;2024-01-15T04:53:30;-0.80;99.90
6518;DHT22;3292;48.944;9.240;2024-01-15T04:55:56;-0.80;99.90
6518;DHT22;3292;48.944;9.240;2024-01-15T04:58:25;-0.70;99.90
6518;DHT22;3292;48.944;9.240;2024-01-15T05:00:52;-0.70;99.90
6518;DHT22;3292;48.944;9.240;2024-01-15T05:03:20;-0.80;99.90
6518;DHT22;3292;48.944;9.240;2024-01-15T05:05:46;-0.80;99.90
6518;DHT22;3292;48.944;9.240;2024-01-15T05:08:13;-0.70;99.90
6518;DHT22;3292;48.944;9.240;2024-01-15T05:10:40;-0.70;99.90
6518;DHT22;3292;48.944;9.240;2024-01-15T05:13:07;-0.80;99.90
6518;DHT22;3292;48.944;9.240;2024-01-15T05:15:35;-0.70;99.90
6518;DHT22;3292;48.944;9.240;2024-01-15T05:18:02;-0.70;99.90
6518;DHT22;3292;48.944;9.240;2024-01-15T05:20:29;-0.70;99.90
6518;DHT22;3292;48.944;9.240;2024-01-15T05:22:56;-0.70;99.90
6518;DHT22;3292;48.944;9.240;2024-01-15T05:25:23;-0.70;99.90
6518;DHT22;3292;48.944;9.240;2024-01-15T05:27:50;-0.80;99.90
6518;DHT22;3292;48.944;9.240;2024-01-15T05:30:17;-0.70;99.90
6518;DHT22;3292;48.944;9.240;2024-01-15T05:32:45;-0.70;99.90
6518;DHT22;3292;48.944;9.240;2024-01-15T05:35:12;-0.70;99.90
6518;DHT22;3292;48.944;9.240;2024-01-15T05:37:44;-0.70;99.90
6518;DHT22;3292;48.944;9.240;2024-01-15T05:40:12;-0.70;99.90
6518;DHT22;3292;48.944;9.240;2024-01-15T05:42:39;-0.70;99.90
6518;DHT22;3292;48.944;9.240;2024-01-15T05:45:06;-0.60;99.90
6518;DHT22;3292;48.944;9.240;2024-01-15T05:47:33;-0.60;99.90
6518;DHT22;3292;48.944;9.240;2024-01-15T05:50:02;-0.60;99.90
6518;DHT22;3292;48.944;9.240;2024-01-15T05:52:29;-0.60;99.90
6518;DHT22;3292;48.944;9.240;2024-01-15T05:54:56;-0.60;99.90
6518;DHT22;3292;48.944;9.240;2024-01-15T05:57:23;-0.70;99.90
6518;DHT22;3292;48.944;9.240;2024-01-15T05:59:49;-0.60;99.90
6518;DHT22;3292;48.944;9.240;2024-01-15T06:02:16;-0.60;99.90
6518;DHT22;3292;48.944;9.240;2024-01-15T06:04:43;-0.60;99.90
6518;DHT22;3292;48.944;9.240;2024-01-15T06:07:11;-0.60;99.90
6518;DHT22;3292;48.944;9.240;2024-01-15T06:09:38;-0.60;99.90
6518;DHT22;3292;48.944;9.240;2024-01-15T06:12:07;-0.60;99.90
6518;DHT22;3292;48.944;9.240;2024-01-15T06:14:34;-0.60;99.90
6518;DHT22;3292;48.944;9.240;2024-01-15T06:17:00;-0.50;99.90
6518;DHT22;3292;48.944;9.240;2024-01-15T06:19:27;-0.40;99.90
6518;DHT22;3292;48.944;9.240;2024-01-15T06:21:54;-0.50;99.90
6518;DHT22;3292;48.944;9.240;2024-01-15T06:24:22;-0.50;99.90
6518;DHT22;3292;48.944;9.240;2024-01-15T06:26:49;-0.50;99.90
6518;DHT22;3292;48.944;9.240;2024-01-15T06:29:16;-0.50;99.90
6518;DHT22;3292;48.944;9.240;2024-01-15T06:31:43;-0.50;99.90
6518;DHT22;3292;48.944;9.240;2024-01-15T06:34:09;-0.50;99.90
6518;DHT22;3292;48.944;9.240;2024-01-15T06:36:36;-0.50;99.90
6518;DHT22;3292;48.944;9.240;2024-01-15T06:39:03;-0.50;99.90
6518;DHT22;3292;48.944;9.240;2024-01-15T06:41:32;-0.40;99.90
6518;DHT22;3292;48.944;9.240;2024-01-15T06:43:58;-0.40;99.90
6518;DHT22;3292;48.944;9.240;2024-01-15T06:46:25;-0.50;99.90
6518;DHT22;3292;48.944;9.240;2024-01-15T06:48:52;-0.50;99.90
6518;DHT22;3292;48.944;9.240;2024-01-15T06:51:19;-0.50;99.90
6518;DHT22;3292;48.944;9.240;2024-01-15T06:53:45;-0.50;99.90
6518;DHT22;3292;48.944;9.240;2024-01-15T06:56:12;-0.50;99.90
6518;DHT22;3292;48.944;9.240;2024-01-15T06:58:40;-0.50;99.90
6518;DHT22;3292;48.944;9.240;2024-01-15T07:01:07;-0.60;99.90
6518;DHT22;3292;48.944;9.240;2024-01-15T07:03:34;-0.50;99.90
6518;DHT22;3292;48.944;9.240;2024-01-15T07:06:01;-0.50;99.90
6518;DHT22;3292;48.944;9.240;2024-01-15T07:08:27;-0.50;99.90
6518;DHT22;3292;48.944;9.240;2024-01-15T07:10:55;-0.50;99.90
6518;DHT22;3292;48.944;9.240;2024-01-15T07:13:22;-0.50;99.90
6518;DHT22;3292;48.944;9.240;2024-01-15T07:15:50;-0.40;99.90
6518;DHT22;3292;48.944;9.240;2024-01-15T07:18:17;-0.40;99.90
6518;DHT22;3292;48.944;9.240;2024-01-15T07:20:43;-0.40;99.90
6518;DHT22;3292;48.944;9.240;2024-01-15T07:23:10;-0.40;99.90
6518;DHT22;3292;48.944;9.240;2024-01-15T07:25:37;-0.40;99.90
6518;DHT22;3292;48.944;9.240;2024-01-15T07:28:05;-0.40;99.90
6518;DHT22;3292;48.944;9.240;2024-01-15T07:30:31;-0.30;99.90
6518;DHT22;3292;48.944;9.240;2024-01-15T07:32:59;-0.30;99.90
6518;DHT22;3292;48.944;9.240;2024-01-15T07:35:26;-0.30;99.90
6518;DHT22;3292;48.944;9.240;2024-01-15T07:37:53;-0.30;99.90
6518;DHT22;3292;48.944;9.240;2024-01-15T07:40:20;-0.30;99.90
6518;DHT22;3292;48.944;9.240;2024-01-15T07:42:47;-0.30;99.90
6518;DHT22;3292;48.944;9.240;2024-01-15T07:45:14;-0.30;99.90
6518;DHT22;3292;48.944;9.240;2024-01-15T07:47:40;-0.30;99.90
6518;DHT22;3292;48.944;9.240;2024-01-15T07:50:09;-0.30;99.90
6518;DHT22;3292;48.944;9.240;2024-01-15T07:52:35;-0.30;99.90
6518;DHT22;3292;48.944;9.240;2024-01-15T07:55:02;-0.30;99.90
6518;DHT22;3292;48.944;9.240;2024-01-15T07:57:30;-0.30;99.90
6518;DHT22;3292;48.944;9.240;2024-01-15T07:59:57;-0.30;99.90
6518;DHT22;3292;48.944;9.240;2024-01-15T08:02:24;-0.30;99.90
6518;DHT22;3292;48.944;9.240;2024-01-15T08:04:51;-0.30;99.90
6518;DHT22;3292;48.944;9.240;2024-01-15T08:07:19;-0.20;99.90
6518;DHT22;3292;48.944;9.240;2024-01-15T08:09:46;-0.20;99.90
6518;DHT22;3292;48.944;9.240;2024-01-15T08:12:14;-0.20;99.90
6518;DHT22;3292;48.944;9.240;2024-01-15T08:14:41;-0.20;99.90
6518;DHT22;3292;48.944;9.240;2024-01-15T08:17:08;-0.20;99.90
6518;DHT22;3292;48.944;9.240;2024-01-15T08:19:34;-0.20;99.90
6518;DHT22;3292;48.944;9.240;2024-01-15T08:22:01;-0.20;99.90
6518;DHT22;3292;48.944;9.240;2024-01-15T08:24:30;-0.20;99.90
6518;DHT22;3292;48.944;9.240;2024-01-15T08:26:57;-0.20;99.90
6518;DHT22;3292;48.944;9.240;2024-01-15T08:29:24;-0.20;99.90
6518;DHT22;3292;48.944;9.240;2024-01-15T08:31:51;-0.20;99.90
6518;DHT22;3292;48.944;9.240;2024-01-15T08:34:18;-0.10;99.90
6518;DHT22;3292;48.944;9.240;2024-01-15T08:36:44;-0.10;99.90
6518;DHT22;3292;48.944;9.240;2024-01-15T08:39:11;-0.10;99.90
6518;DHT22;3292;48.944;9.240;2024-01-15T08:41:42;-0.10;99.90
6518;DHT22;3292;48.944;9.240;2024-01-15T08:44:08;-0.10;99.90
6518;DHT22;3292;48.944;9.240;2024-01-15T08:46:35;-0.10;99.90
6518;DHT22;3292;48.944;9.240;2024-01-15T08:49:03;0.00;99.90
6518;DHT22;3292;48.944;9.240;2024-01-15T08:51:30;-0.10;99.90
6518;DHT22;3292;48.944;9.240;2024-01-15T08:53:57;-0.10;99.90
6518;DHT22;3292;48.944;9.240;2024-01-15T08:56:23;0.00;99.90
6518;DHT22;3292;48.944;9.240;2024-01-15T08:58:51;0.00;99.90
6518;DHT22;3292;48.944;9.240;2024-01-15T09:01:18;0.00;99.90
6518;DHT22;3292;48.944;9.240;2024-01-15T09:03:45;0.00;99.90
6518;DHT22;3292;48.944;9.240;2024-01-15T09:06:13;0.00;99.90
6518;DHT22;3292;48.944;9.240;2024-01-15T09:08:40;0.10;99.90
6518;DHT22;3292;48.944;9.240;2024-01-15T09:11:07;0.10;99.90
6518;DHT22;3292;48.944;9.240;2024-01-15T09:13:34;0.10;99.90
6518;DHT22;3292;48.944;9.240;2024-01-15T09:16:02;0.10;99.90
6518;DHT22;3292;48.944;9.240;2024-01-15T09:18:29;0.20;99.90
6518;DHT22;3292;48.944;9.240;2024-01-15T09:20:57;0.20;99.90
6518;DHT22;3292;48.944;9.240;2024-01-15T09:23:24;0.30;99.90
6518;DHT22;3292;48.944;9.240;2024-01-15T09:25:50;0.30;99.90
6518;DHT22;3292;48.944;9.240;2024-01-15T09:28:18;0.30;99.90
6518;DHT22;3292;48.944;9.240;2024-01-15T09:30:45;0.50;99.90
6518;DHT22;3292;48.944;9.240;2024-01-15T09:33:14;0.40;99.90
6518;DHT22;3292;48.944;9.240;2024-01-15T09:35:40;0.50;99.90
6518;DHT22;3292;48.944;9.240;2024-01-15T09:38:07;0.50;99.90
6518;DHT22;3292;48.944;9.240;2024-01-15T09:40:38;0.50;99.90
6518;DHT22;3292;48.944;9.240;2024-01-15T09:43:06;0.50;99.90
6518;DHT22;3292;48.944;9.240;2024-01-15T09:45:33;0.50;99.90
6518;DHT22;3292;48.944;9.240;2024-01-15T09:48:00;0.60;99.90
6518;DHT22;3292;48.944;9.240;2024-01-15T09:50:29;0.60;99.90
6518;DHT22;3292;48.944;9.240;2024-01-15T09:52:56;0.60;99.90
6518;DHT22;3292;48.944;9.240;2024-01-15T09:55:23;0.60;99.90
6518;DHT22;3292;48.944;9.240;2024-01-15T09:57:50;0.60;99.90
6518;DHT22;3292;48.944;9.240;2024-01-15T10:00:18;0.60;99.90
6518;DHT22;3292;48.944;9.240;2024-01-15T10:02:45;0.60;99.90
6518;DHT22;3292;48.944;9.240;2024-01-15T10:05:12;0.70;99.90
6518;DHT22;3292;48.944;9.240;2024-01-15T10:07:40;0.70;99.90
6518;DHT22;3292;48.944;9.240;2024-01-15T10:10:08;0.70;99.90
6518;DHT22;3292;48.944;9.240;2024-01-15T10:12:35;0.80;99.90
6518;DHT22;3292;48.944;9.240;2024-01-15T10:15:02;0.80;99.90
6518;DHT22;3292;48.944;9.240;2024-01-15T10:17:29;0.80;99.90
6518;DHT22;3292;48.944;9.240;2024-01-15T10:19:56;0.80;99.90
6518;DHT22;3292;48.944;9.240;2024-01-15T10:22:23;0.80;99.90
6518;DHT22;3292;48.944;9.240;2024-01-15T10:24:51;0.90;99.90
6518;DHT22;3292;48.944;9.240;2024-01-15T10:27:18;0.90;99.90
6518;DHT22;3292;48.944;9.240;2024-01-15T10:29:45;0.90;99.90
6518;DHT22;3292;48.944;9.240;2024-01-15T10:32:12;1.00;99.90
6518;DHT22;3292;48.944;9.240;2024-01-15T10:34:39;1.00;99.90
6518;DHT22;3292;48.944;9.240;2024-01-15T10:37:07;1.00;99.90
6518;DHT22;3292;48.944;9.240;2024-01-15T10:39:34;1.00;99.90
6518;DHT22;3292;48.944;9.240;2024-01-15T10:42:03;1.10;99.90
6518;DHT22;3292;48.944;9.240;2024-01-15T10:44:30;1.10;99.90
6518;DHT22;3292;48.944;9.240;2024-01-15T10:46:57;1.10;99.90
6518;DHT22;3292;48.944;9.240;2024-01-15T10:49:24;1.10;99.90
6518;DHT22;3292;48.944;9.240;2024-01-15T10:51:53;1.10;99.90
6518;DHT22;3292;48.944;9.240;2024-01-15T10:54:21;1.10;99.90
6518;DHT22;3292;48.944;9.240;2024-01-15T10:56:50;1.10;99.90
6518;DHT22;3292;48.944;9.240;2024-01-15T10:59:20;1.10;99.90
6518;DHT22;3292;48.944;9.240;2024-01-15T11:01:48;1.00;99.90
6518;DHT22;3292;48.944;9.240;2024-01-15T11:04:16;0.90;99.90
6518;DHT22;3292;48.944;9.240;2024-01-15T11:06:45;0.80;99.90
6518;DHT22;3292;48.944;9.240;2024-01-15T11:09:13;0.70;99.90
6518;DHT22;3292;48.944;9.240;2024-01-15T11:11:44;0.60;99.90
6518;DHT22;3292;48.944;9.240;2024-01-15T11:14:38;0.50;99.90
6518;DHT22;3292;48.944;9.240;2024-01-15T11:17:05;0.40;99.90
6518;DHT22;3292;48.944;9.240;2024-01-15T11:19:38;0.30;99.90
6518;DHT22;3292;48.944;9.240;2024-01-15T11:22:09;0.30;99.90
6518;DHT22;3292;48.944;9.240;2024-01-15T11:24:38;0.30;99.90
6518;DHT22;3292;48.944;9.240;2024-01-15T11:27:06;0.20;99.90
6518;DHT22;3292;48.944;9.240;2024-01-15T11:29:34;0.10;99.90
6518;DHT22;3292;48.944;9.240;2024-01-15T11:32:04;0.10;99.90
6518;DHT22;3292;48.944;9.240;2024-01-15T11:34:51;0.10;99.90
6518;DHT22;3292;48.944;9.240;2024-01-15T11:37:18;0.00;99.90
6518;DHT22;3292;48.944;9.240;2024-01-15T11:39:46;0.00;99.90
6518;DHT22;3292;48.944;9.240;2024-01-15T11:42:14;0.00;99.90
6518;DHT22;3292;48.944;9.240;2024-01-15T11:44:41;0.00;99.90
6518;DHT22;3292;48.944;9.240;2024-01-15T11:47:10;0.00;99.90
6518;DHT22;3292;48.944;9.240;2024-01-15T11:49:59;0.00;99.90
6518;DHT22;3292;48.944;9.240;2024-01-15T11:52:32;0.00;99.90
6518;DHT22;3292;48.944;9.240;2024-01-15T11:55:06;0.00;99.90
6518;DHT22;3292;48.944;9.240;2024-01-15T11:57:41;0.10;99.90
6518;DHT22;3292;48.944;9.240;2024-01-15T12:00:09;0.10;99.90
6518;DHT22;3292;48.944;9.240;2024-01-15T12:02:38;0.10;99.90
6518;DHT22;3292;48.944;9.240;2024-01-15T12:05:06;0.10;99.90
6518;DHT22;3292;48.944;9.240;2024-01-15T12:07:33;0.10;99.90
6518;DHT22;3292;48.944;9.240;2024-01-15T12:10:00;0.10;99.90
6518;DHT22;3292;48.944;9.240;2024-01-15T12:12:37;0.00;99.90
6518;DHT22;3292;48.944;9.240;2024-01-15T12:15:06;0.00;99.90
6518;DHT22;3292;48.944;9.240;2024-01-15T12:17:34;0.10;99.90
6518;DHT22;3292;48.944;9.240;2024-01-15T12:20:03;0.10;99.90
6518;DHT22;3292;48.944;9.240;2024-01-15T12:22:31;0.10;99.90
6518;DHT22;3292;48.944;9.240;2024-01-15T12:24:58;0.10;99.90
6518;DHT22;3292;48.944;9.240;2024-01-15T12:27:25;0.10;99.90
6518;DHT22;3292;48.944;9.240;2024-01-15T12:29:53;0.10;99.90
6518;DHT22;3292;48.944;9.240;2024-01-15T12:32:19;0.10;99.90
6518;DHT22;3292;48.944;9.240;2024-01-15T12:34:48;0.00;99.90
6518;DHT22;3292;48.944;9.240;2024-01-15T12:37:18;0.10;99.90
6518;DHT22;3292;48.944;9.240;2024-01-15T12:39:45;0.00;99.90
6518;DHT22;3292;48.944;9.240;2024-01-15T12:42:13;0.10;99.90
6518;DHT22;3292;48.944;9.240;2024-01-15T12:44:40;0.10;99.90
6518;DHT22;3292;48.944;9.240;2024-01-15T12:47:06;0.10;99.90
6518;DHT22;3292;48.944;9.240;2024-01-15T12:49:33;0.00;99.90
6518;DHT22;3292;48.944;9.240;2024-01-15T12:52:00;0.10;99.90
6518;DHT22;3292;48.944;9.240;2024-01-15T12:54:28;0.10;99.90
6518;DHT22;3292;48.944;9.240;2024-01-15T12:56:58;0.10;99.90
6518;DHT22;3292;48.944;9.240;2024-01-15T12:59:24;0.10;99.90
6518;DHT22;3292;48.944;9.240;2024-01-15T13:01:51;0.20;99.90
6518;DHT22;3292;48.944;9.240;2024-01-15T13:04:22;0.20;99.90
6518;DHT22;3292;48.944;9.240;2024-01-15T13:06:49;0.20;99.90
6518;DHT22;3292;48.944;9.240;2024-01-15T13:09:16;0.20;99.90
6518;DHT22;3292;48.944;9.240;2024-01-15T13:11:44;0.20;99.90
6518;DHT22;3292;48.944;9.240;2024-01-15T13:14:14;0.20;99.90
6518;DHT22;3292;48.944;9.240;2024-01-15T13:16:41;0.20;99.90
6518;DHT22;3292;48.944;9.240;2024-01-15T13:19:09;0.30;99.90
6518;DHT22;3292;48.944;9.240;2024-01-15T13:21:38;0.20;99.90
6518;DHT22;3292;48.944;9.240;2024-01-15T13:24:06;0.20;99.90
6518;DHT22;3292;48.944;9.240;2024-01-15T13:26:33;0.30;99.90
6518;DHT22;3292;48.944;9.240;2024-01-15T13:29:01;0.30;99.90
6518;DHT22;3292;48.944;9.240;2024-01-15T13:31:29;0.30;99.90
6518;DHT22;3292;48.944;9.240;2024-01-15T13:33:56;0.20;99.90
6518;DHT22;3292;48.944;9.240;2024-01-15T13:36:23;0.20;99.90
6518;DHT22;3292;48.944;9.240;2024-01-15T13:38:50;0.20;99.90
6518;DHT22;3292;48.944;9.240;2024-01-15T13:41:17;0.30;99.90
6518;DHT22;3292;48.944;9.240;2024-01-15T13:43:47;0.30;99.90
6518;DHT22;3292;48.944;9.240;2024-01-15T13:46:15;0.30;99.90
6518;DHT22;3292;48.944;9.240;2024-01-15T13:48:42;0.30;99.90
6518;DHT22;3292;48.944;9.240;2024-01-15T13:51:09;0.30;99.90
6518;DHT22;3292;48.944;9.240;2024-01-15T13:53:37;0.30;99.90
6518;DHT22;3292;48.944;9.240;2024-01-15T13:56:05;0.30;99.90
6518;DHT22;3292;48.944;9.240;2024-01-15T13:58:32;0.30;99.90
6518;DHT22;3292;48.944;9.240;2024-01-15T14:00:59;0.30;99.90
6518;DHT22;3292;48.944;9.240;2024-01-15T14:03:27;0.30;99.90
6518;DHT22;3292;48.944;9.240;2024-01-15T14:05:54;0.30;99.90
6518;DHT22;3292;48.944;9.240;2024-01-15T14:08:21;0.30;99.90
6518;DHT22;3292;48.944;9.240;2024-01-15T14:10:48;0.30;99.90
6518;DHT22;3292;48.944;9.240;2024-01-15T14:13:14;0.30;99.90
6518;DHT22;3292;48.944;9.240;2024-01-15T14:15:41;0.30;99.90
6518;DHT22;3292;48.944;9.240;2024-01-15T14:18:08;0.30;99.90
6518;DHT22;3292;48.944;9.240;2024-01-15T14:20:36;0.30;99.90
6518;DHT22;3292;48.944;9.240;2024-01-15T14:23:03;0.30;99.90
6518;DHT22;3292;48.944;9.240;2024-01-15T14:25:30;0.30;99.90
6518;DHT22;3292;48.944;9.240;2024-01-15T14:27:56;0.30;99.90
6518;DHT22;3292;48.944;9.240;2024-01-15T14:30:24;0.30;99.90
6518;DHT22;3292;48.944;9.240;2024-01-15T14:32:50;0.30;99.90
6518;DHT22;3292;48.944;9.240;2024-01-15T14:35:17;0.30;99.90
6518;DHT22;3292;48.944;9.240;2024-01-15T14:37:45;0.30;99.90
6518;DHT22;3292;48.944;9.240;2024-01-15T14:40:13;0.20;99.90
6518;DHT22;3292;48.944;9.240;2024-01-15T14:42:41;0.20;99.90
6518;DHT22;3292;48.944;9.240;2024-01-15T14:45:09;0.20;99.90
6518;DHT22;3292;48.944;9.240;2024-01-15T14:47:37;0.20;99.90
6518;DHT22;3292;48.944;9.240;2024-01-15T14:50:05;0.20;99.90
6518;DHT22;3292;48.944;9.240;2024-01-15T14:52:32;0.20;99.90
6518;DHT22;3292;48.944;9.240;2024-01-15T14:55:00;0.20;99.90
6518;DHT22;3292;48.944;9.240;2024-01-15T14:57:27;0.20;99.90
6518;DHT22;3292;48.944;9.240;2024-01-15T14:59:54;0.20;99.90
6518;DHT22;3292;48.944;9.240;2024-01-15T15:02:22;0.30;99.90
6518;DHT22;3292;48.944;9.240;2024-01-15T15:04:49;0.30;99.90
6518;DHT22;3292;48.944;9.240;2024-01-15T15:07:16;0.20;99.90
6518;DHT22;3292;48.944;9.240;2024-01-15T15:09:43;0.20;99.90
6518;DHT22;3292;48.944;9.240;2024-01-15T15:12:11;0.20;99.90
6518;DHT22;3292;48.944;9.240;2024-01-15T15:14:40;0.20;99.90
6518;DHT22;3292;48.944;9.240;2024-01-15T15:17:07;0.20;99.90
6518;DHT22;3292;48.944;9.240;2024-01-15T15:19:37;0.30;99.90
6518;DHT22;3292;48.944;9.240;2024-01-15T15:22:05;0.20;99.90
6518;DHT22;3292;48.944;9.240;2024-01-15T15:24:32;0.20;99.90
6518;DHT22;3292;48.944;9.240;2024-01-15T15:26:59;0.20;99.90
6518;DHT22;3292;48.944;9.240;2024-01-15T15:29:27;0.20;99.90
6518;DHT22;3292;48.944;9.240;2024-01-15T15:31:54;0.20;99.90
6518;DHT22;3292;48.944;9.240;2024-01-15T15:34:21;0.20;99.90
6518;DHT22;3292;48.944;9.240;2024-01-15T15:36:48;0.20;99.90
6518;DHT22;3292;48.944;9.240;2024-01-15T15:39:15;0.20;99.90
6518;DHT22;3292;48.944;9.240;2024-01-15T15:41:44;0.20;99.90
6518;DHT22;3292;48.944;9.240;2024-01-15T15:44:12;0.20;99.90
6518;DHT22;3292;48.944;9.240;2024-01-15T15:46:43;0.20;99.90
6518;DHT22;3292;48.944;9.240;2024-01-15T15:49:10;0.20;99.90
6518;DHT22;3292;48.944;9.240;2024-01-15T15:51:36;0.20;99.90
6518;DHT22;3292;48.944;9.240;2024-01-15T15:54:03;0.10;99.90
6518;DHT22;3292;48.944;9.240;2024-01-15T15:56:31;0.20;99.90
6518;DHT22;3292;48.944;9.240;2024-01-15T15:59:03;0.10;99.90
6518;DHT22;3292;48.944;9.240;2024-01-15T16:01:30;0.10;99.90
6518;DHT22;3292;48.944;9.240;2024-01-15T16:03:59;0.10;99.90
6518;DHT22;3292;48.944;9.240;2024-01-15T16:06:26;0.10;99.90
6518;DHT22;3292;48.944;9.240;2024-01-15T16:08:53;0.10;99.90
6518;DHT22;3292;48.944;9.240;2024-01-15T16:11:23;0.00;99.90